AirNav   Air Wisconsin Up To $57,000 Bonus
 
 1330 users online  

29IN Homestead Airport
Columbia City, Indiana, USA

GOING TO COLUMBIA CITY?


FAA INFORMATION EFFECTIVE 25 MARCH 2021

Location

FAA Identifier: 29IN
Lat/Long: 41-04-33.1680N 085-23-09.9130W
41-04.552800N 085-23.165217W
41.0758800,-85.3860869
(estimated)
Elevation: 863 ft. / 263 m (estimated)
Variation: 03W (1985)
From city: 7 miles SE of COLUMBIA CITY, IN
Time zone: UTC -4 (UTC -5 during Standard Time)
Zip code: 46725

Airport Operations

Airport use: Private use. Permission required prior to landing
Activation date: 03/1978
Control tower: no
ARTCC: CHICAGO CENTER
FSS: TERRE HAUTE FLIGHT SERVICE STATION
Attendance: MAY-NOV DAYLIGHT HOURS
Wind indicator: yes
Segmented circle: no

Airport Communications

WX ASOS at FWA (10 nm SE): PHONE 260-479-6621
WX AWOS-3 at SMD (11 nm E): 124.55 (260-490-4030)
WX AWOS-3PT at HHG (14 nm S): 126.575 (260-454-1927)

Nearby radio navigation aids

VOR radial/distance  VOR name  Freq  Var
FWAr309/10.7FORT WAYNE VORTAC117.8006W
OLKr157/(11.4)WEBSTER LAKE VOR110.4003W
MZZr024/37.4MARION VOR/DME108.6003W
GSHr133/39.5GOSHEN VORTAC113.7000E

Airport Services

Runway Information

Runway 18/36

Dimensions: 1950 x 75 ft. / 594 x 23 m
Surface: turf
RUNWAY 18  RUNWAY 36
Traffic pattern: leftleft
Obstructions: 40 ft. pline, 150 ft. from runway80 ft. towers, 2600 ft. from runway

Airport Ownership and Management from official FAA records

Ownership: Privately-owned
Owner: JOHN BORMANN
10320 COVINGTON RD
FORT WAYNE, IN 46804
Phone 260-432-4723
Manager: JOHN BORMANN
10320 COVINGTON RD.
FORT WAYNE, IN 46804
Phone 260-432-4723

Additional Remarks

FOR CD CTC CHICAGO ARTCC AT 630-906-8921.

Instrument Procedures

There are no published instrument procedures at 29IN.

Some nearby airports with instrument procedures:

KFWA - Fort Wayne International Airport (10 nm SE)
KSMD - Smith Field Airport (11 nm E)
KHHG - Huntington Municipal Airport (14 nm S)
KGWB - De Kalb County Airport (20 nm NE)
KASW - Warsaw Municipal Airport (24 nm NW)
 
Loc | Ops | Rwys | IFR | FBO | Links
Com | Nav | Svcs | Stats | Notes
Area around 29IN (Homestead Airport)
 
Road maps at: MapQuest Bing Google
 
Aerial photo
No photo
 
Sectional chart

 
Airport distance calculator
Flying to Homestead Airport? Find the distance to fly.

From to 29IN

Sunrise and sunset
Times for 12-Apr-2021
 Local
(UTC-4)
 Zulu
(UTC)
Morning civil twilight06:4010:40
Sunrise07:0811:08
Sunset20:1700:17
Evening civil twilight20:4500:45

Current date and time
Zulu (UTC)  12-Apr-2021 22:08:00
Local (UTC-4)  12-Apr-2021 18:08:00
 
METAR
KFWA 
11nm SE 
122154Z 28015G19KT 10SM BKN050 BKN065 18/07 A2982 RMK AO2 SLP099 T01780072 $
KSMD 
11nm E 
122155Z AUTO 30008G16KT 10SM FEW048 FEW055 17/08 A2983 RMK A01
KHHG 
14nm S 
122155Z AUTO 27008G21KT 10SM SCT050 SCT065 16/05 A2983 RMK AO2 T01620051
KGWB 
20nm NE 
122155Z AUTO 30006KT 10SM SCT060 16/07 A2983 RMK AO2
TAF
KFWA 
11nm SE 
121720Z 1218/1318 28012KT P6SM SCT030 BKN200 TEMPO 1218/1222 BKN025 FM130200 29006KT P6SM FEW200
NOTAMs
Click for the latest NOTAMs
NOTAMs are issued by the DoD/FAA and will open in a separate window not controlled by AirNav.

 

 
 

Would you like to see your business listed on this page?

 If your business provides an interesting product or service to pilots, flight crews, aircraft, or users of the Homestead Airport, you should consider listing it here.  To start the listing process, click on the button below
 
Add a business
 

Other Pages about Homestead Airport

Update a link
 
Copyright © AirNav, LLC. All rights reserved. Privacy Policy  Contact